Time;durP1;ratioP1;P1;durP2;ratioP2;P2;SDS_P1;SDS_P2;PMS_P1;PMS_P2;Temp;Humidity;BMP_temperature;BMP_pressure;BME280_temperature;BME280_humidity;BME280_pressure;Samples;Min_cycle;Max_cycle;Signal;HPM_P1;HPM_P2
2022/12/15 00:39:11;;;;;;;13.17;7.27;;;0.00;99.90;;;;;;5026964;28;20474;-68
2022/12/15 00:41:37;;;;;;;14.50;8.40;;;0.10;99.90;;;;;;5031163;28;20450;-68
2022/12/15 00:44:03;;;;;;;18.67;7.87;;;0.10;99.90;;;;;;5025778;28;20289;-68
2022/12/15 01:22:36;;;;;;;15.23;8.40;;;-0.10;99.90;;;;;;5006384;28;20456;-67
2022/12/15 01:25:03;;;;;;;17.77;8.10;;;-0.10;99.90;;;;;;5030700;28;20462;-67
2022/12/15 01:27:29;;;;;;;19.23;8.60;;;-0.10;99.90;;;;;;5029544;28;20978;-68
2022/12/15 01:29:54;;;;;;;15.80;8.20;;;-0.10;99.90;;;;;;5030742;28;20525;-68
2022/12/15 01:32:20;;;;;;;12.27;8.20;;;-0.10;99.90;;;;;;5029985;28;20300;-68
2022/12/15 01:34:46;;;;;;;20.93;7.97;;;-0.10;99.90;;;;;;5035223;28;20224;-67
2022/12/15 01:37:11;;;;;;;14.43;8.17;;;-0.10;99.90;;;;;;5044380;28;20212;-68
2022/12/15 01:42:29;;;;;;;14.90;6.70;;;-0.10;99.90;;;;;;5020698;28;20217;-67
2022/12/15 01:45:37;;;;;;;12.90;7.90;;;-0.10;99.90;;;;;;5014546;28;20467;-67
2022/12/15 01:48:12;;;;;;;17.10;8.13;;;-0.10;99.90;;;;;;5027771;28;20483;-67
2022/12/15 01:51:09;;;;;;;13.00;7.10;;;-0.20;99.90;;;;;;5026720;28;20463;-68
2022/12/15 01:53:46;;;;;;;14.43;7.70;;;-0.30;99.90;;;;;;5034052;28;20521;-66
2022/12/15 01:56:12;;;;;;;9.17;5.60;;;-0.20;99.90;;;;;;5003676;28;20474;-67
2022/12/15 01:58:42;;;;;;;11.43;6.20;;;-0.20;99.90;;;;;;5037964;28;20446;-67
2022/12/15 02:01:08;;;;;;;14.93;8.00;;;-0.20;99.90;;;;;;5003080;28;20542;-68
2022/12/15 02:03:34;;;;;;;13.67;6.70;;;-0.20;99.90;;;;;;5018629;28;20471;-66
2022/12/15 02:06:01;;;;;;;17.20;7.10;;;-0.20;99.90;;;;;;5022715;28;20459;-68
2022/12/15 02:08:29;;;;;;;15.17;8.10;;;-0.20;99.90;;;;;;5010368;28;20476;-67
2022/12/15 02:11:25;;;;;;;16.17;6.50;;;-0.20;99.90;;;;;;5031498;28;20466;-67
2022/12/15 02:13:57;;;;;;;11.50;6.73;;;-0.20;99.90;;;;;;5025054;28;20454;-68
2022/12/15 02:16:33;;;;;;;9.90;6.20;;;-0.20;99.90;;;;;;5029021;28;20460;-66
2022/12/15 02:19:23;;;;;;;10.90;5.97;;;-0.30;99.90;;;;;;5040866;28;20473;-68
2022/12/15 02:22:23;;;;;;;12.13;6.07;;;-0.30;99.90;;;;;;5021042;28;20458;-68
2022/12/15 02:25:07;;;;;;;11.10;5.63;;;-0.30;99.90;;;;;;5010237;28;20475;-68
2022/12/15 02:27:41;;;;;;;13.13;6.67;;;-0.30;99.90;;;;;;5031412;28;20439;-67
2022/12/15 02:30:25;;;;;;;16.63;7.23;;;-0.30;99.90;;;;;;5029382;28;20450;-68
2022/12/15 02:33:11;;;;;;;12.77;6.70;;;-0.30;99.90;;;;;;5012971;28;20483;-68
2022/12/15 02:35:56;;;;;;;13.37;6.63;;;-0.30;99.90;;;;;;5029874;28;20876;-67
2022/12/15 02:38:35;;;;;;;13.53;7.73;;;-0.30;99.90;;;;;;5029620;28;20452;-67
2022/12/15 02:41:03;;;;;;;14.80;8.40;;;-0.30;99.90;;;;;;5027131;28;20470;-66
2022/12/15 02:43:34;;;;;;;11.83;7.60;;;-0.30;99.90;;;;;;5041605;28;20462;-67
2022/12/15 02:46:13;;;;;;;9.13;6.27;;;-0.40;99.90;;;;;;5031563;28;20460;-68
2022/12/15 02:48:48;;;;;;;10.97;5.83;;;-0.40;99.90;;;;;;5027964;28;20465;-68
2022/12/15 02:51:48;;;;;;;11.87;7.13;;;-0.40;99.90;;;;;;5030445;28;20493;-67
2022/12/15 02:55:05;;;;;;;11.23;7.27;;;-0.40;99.90;;;;;;5022203;28;20459;-68
2022/12/15 02:57:40;;;;;;;13.33;5.53;;;-0.50;99.90;;;;;;5001860;28;20458;-68
2022/12/15 03:00:09;;;;;;;8.87;6.23;;;-0.50;99.90;;;;;;4993148;28;21057;-67
2022/12/15 03:02:39;;;;;;;13.70;7.67;;;-0.50;99.90;;;;;;5024064;28;20535;-67
2022/12/15 03:05:06;;;;;;;13.63;6.47;;;-0.50;99.90;;;;;;5011986;28;20882;-68
2022/12/15 03:07:32;;;;;;;14.97;5.90;;;-0.60;99.90;;;;;;5000366;28;20459;-67
2022/12/15 03:09:59;;;;;;;15.90;6.57;;;-0.60;99.90;;;;;;5021322;28;20542;-68
2022/12/15 03:12:26;;;;;;;12.70;6.40;;;-0.60;99.90;;;;;;5027721;28;20270;-68
2022/12/15 03:14:52;;;;;;;12.37;6.90;;;-0.60;99.90;;;;;;5022223;28;20459;-68
2022/12/15 03:17:18;;;;;;;10.20;6.00;;;-0.60;99.90;;;;;;5029168;28;20489;-67
2022/12/15 03:19:43;;;;;;;15.60;6.80;;;-0.70;99.90;;;;;;4998453;28;20476;-67
2022/12/15 03:22:09;;;;;;;12.63;6.93;;;-0.80;99.90;;;;;;5038496;28;20223;-68
2022/12/15 03:24:35;;;;;;;15.77;6.10;;;-0.80;99.90;;;;;;5028429;28;20275;-67
2022/12/15 03:27:00;;;;;;;10.23;6.10;;;-0.80;99.90;;;;;;5029042;28;20219;-67
2022/12/15 03:29:26;;;;;;;16.80;7.20;;;-0.80;99.90;;;;;;5027716;28;20260;-68
2022/12/15 03:31:52;;;;;;;15.60;7.50;;;-0.80;99.90;;;;;;5018664;28;20225;-67
2022/12/15 03:34:17;;;;;;;12.90;5.87;;;-0.80;99.90;;;;;;5030927;28;20216;-67
2022/12/15 03:36:43;;;;;;;10.70;5.97;;;-0.80;99.90;;;;;;5009222;28;20221;-67
2022/12/15 03:39:09;;;;;;;15.97;6.57;;;-0.80;99.90;;;;;;5022756;28;20304;-67
2022/12/15 03:41:34;;;;;;;10.83;5.97;;;-0.80;99.90;;;;;;5017245;28;20236;-69
2022/12/15 03:44:00;;;;;;;9.60;5.40;;;-0.80;99.90;;;;;;5028597;28;20243;-67
2022/12/15 03:46:26;;;;;;;14.20;7.30;;;-0.80;99.90;;;;;;5011629;28;20224;-66
2022/12/15 03:48:52;;;;;;;12.83;7.70;;;-0.80;99.90;;;;;;5027593;28;20693;-67
2022/12/15 03:51:19;;;;;;;15.30;7.97;;;-0.80;99.90;;;;;;5011930;28;20452;-67
2022/12/15 03:53:46;;;;;;;15.90;6.80;;;-0.80;99.90;;;;;;5014621;28;20509;-66
2022/12/15 03:56:12;;;;;;;14.30;6.67;;;-0.80;99.90;;;;;;5028502;28;20520;-68
2022/12/15 03:58:38;;;;;;;10.17;6.50;;;-0.80;99.90;;;;;;5035154;28;20465;-66
2022/12/15 04:01:22;;;;;;;17.40;7.50;;;-0.90;99.90;;;;;;5011735;28;20471;-67
2022/12/15 04:03:47;;;;;;;11.00;7.30;;;-0.90;99.90;;;;;;5006325;28;20224;-67
2022/12/15 04:06:13;;;;;;;10.90;6.23;;;-0.90;99.90;;;;;;5023121;28;20460;-67
2022/12/15 04:08:38;;;;;;;8.83;5.77;;;-0.90;99.90;;;;;;5025965;28;20212;-67
2022/12/15 04:11:04;;;;;;;19.43;7.67;;;-0.90;99.90;;;;;;5008913;28;20224;-67
2022/12/15 04:13:30;;;;;;;17.10;6.30;;;-0.90;99.90;;;;;;5023744;28;20221;-67
2022/12/15 04:15:55;;;;;;;14.80;7.53;;;-0.90;99.90;;;;;;5041133;28;20277;-67
2022/12/15 04:18:21;;;;;;;21.57;8.23;;;-0.90;99.90;;;;;;5036868;28;20223;-67
2022/12/15 04:20:47;;;;;;;12.30;6.07;;;-0.90;99.90;;;;;;5039596;28;20603;-68
2022/12/15 04:23:13;;;;;;;16.10;6.57;;;-0.90;99.90;;;;;;5028111;28;20220;-67
2022/12/15 05:31:54;;;;;;;13.07;6.70;;;-1.30;99.90;;;;;;5030987;28;20488;-67
2022/12/15 05:34:21;;;;;;;13.10;7.23;;;-1.30;99.90;;;;;;5032074;28;20515;-68
2022/12/15 05:36:48;;;;;;;15.80;7.20;;;-1.30;99.90;;;;;;5030558;28;20455;-67
2022/12/15 05:39:14;;;;;;;13.60;7.20;;;-1.30;99.90;;;;;;5043523;28;20447;-68
2022/12/15 05:41:40;;;;;;;17.90;7.63;;;-1.30;99.90;;;;;;5017155;28;21006;-67
2022/12/15 05:44:05;;;;;;;15.93;8.13;;;-1.40;99.90;;;;;;5028713;28;20233;-67
2022/12/15 05:46:34;;;;;;;14.50;7.30;;;-1.40;99.90;;;;;;5029578;28;20499;-71
2022/12/15 05:49:03;;;;;;;8.80;4.90;;;-1.40;99.90;;;;;;5029801;28;20333;-68
2022/12/15 05:51:29;;;;;;;18.17;7.10;;;-1.40;99.90;;;;;;5030505;28;20582;-68
2022/12/15 05:53:55;;;;;;;13.27;8.07;;;-1.50;99.90;;;;;;5030132;28;20526;-68
2022/12/15 05:56:20;;;;;;;17.67;9.97;;;-1.50;99.90;;;;;;5016778;28;20303;-68
2022/12/15 05:58:46;;;;;;;22.40;8.87;;;-1.50;99.90;;;;;;5016496;28;20307;-68
2022/12/15 06:01:15;;;;;;;21.33;10.07;;;-1.40;99.90;;;;;;5028801;28;20220;-69
2022/12/15 06:03:41;;;;;;;15.70;8.87;;;-1.50;99.90;;;;;;5007863;28;20221;-67
2022/12/15 06:06:07;;;;;;;16.60;7.90;;;-1.50;99.90;;;;;;5023922;28;20463;-67
2022/12/15 06:08:37;;;;;;;12.67;7.33;;;-1.50;99.90;;;;;;5023627;28;20459;-68
2022/12/15 06:11:03;;;;;;;19.33;7.50;;;-1.50;99.90;;;;;;5017204;28;20518;-68
2022/12/15 06:13:30;;;;;;;13.03;7.70;;;-1.50;99.90;;;;;;5007099;28;20546;-65
2022/12/15 06:15:57;;;;;;;14.70;7.07;;;-1.50;99.90;;;;;;5010053;28;20468;-65
2022/12/15 06:18:23;;;;;;;14.70;7.70;;;-1.50;99.90;;;;;;5020245;28;20447;-67
2022/12/15 06:20:48;;;;;;;15.60;7.03;;;-1.50;99.90;;;;;;5008303;28;20465;-67
2022/12/15 06:23:14;;;;;;;15.97;7.63;;;-1.50;99.90;;;;;;5006382;28;20460;-67
2022/12/15 06:25:40;;;;;;;17.07;6.00;;;-1.50;99.90;;;;;;5035309;28;20252;-66
2022/12/15 06:28:05;;;;;;;20.60;8.27;;;-1.50;99.90;;;;;;5028802;28;20247;-66
2022/12/15 06:30:31;;;;;;;12.60;7.70;;;-1.50;99.90;;;;;;5027564;28;20555;-67
2022/12/15 06:32:57;;;;;;;14.50;7.80;;;-1.70;99.90;;;;;;5025400;28;20212;-67
2022/12/15 06:35:22;;;;;;;12.60;6.90;;;-1.70;99.90;;;;;;5027316;28;20598;-68
2022/12/15 06:37:48;;;;;;;14.67;7.93;;;-1.60;99.90;;;;;;5011088;28;20231;-67
2022/12/15 06:40:14;;;;;;;17.00;7.80;;;-1.50;99.90;;;;;;5029840;28;20684;-67
2022/12/15 06:42:39;;;;;;;16.50;8.90;;;-1.50;99.90;;;;;;5029298;28;20220;-67
2022/12/15 06:45:07;;;;;;;15.37;7.70;;;-1.50;99.90;;;;;;5027640;28;20220;-68
2022/12/15 06:47:32;;;;;;;11.60;7.37;;;-1.40;99.90;;;;;;5020777;28;20251;-67
2022/12/15 06:49:58;;;;;;;17.70;9.73;;;-1.40;99.90;;;;;;5017785;28;20487;-68
2022/12/15 06:52:23;;;;;;;19.20;7.70;;;-1.40;99.90;;;;;;5023818;28;20224;-68
2022/12/15 06:54:49;;;;;;;14.63;8.93;;;-1.40;99.90;;;;;;5013900;28;20308;-68
2022/12/15 06:57:15;;;;;;;13.87;6.90;;;-1.40;99.90;;;;;;5007881;28;20588;-68
2022/12/15 06:59:41;;;;;;;17.23;7.20;;;-1.40;99.90;;;;;;5025895;28;20216;-67
2022/12/15 07:02:17;;;;;;;13.47;7.97;;;-1.40;99.90;;;;;;5031596;28;20850;-67
2022/12/15 07:04:43;;;;;;;15.27;8.20;;;-1.40;99.90;;;;;;5029228;28;20227;-67
2022/12/15 07:07:09;;;;;;;17.43;6.47;;;-1.40;99.90;;;;;;5022478;28;20448;-68
2022/12/15 07:09:35;;;;;;;15.33;7.03;;;-1.40;99.90;;;;;;5025047;28;20307;-68
2022/12/15 07:12:01;;;;;;;12.80;6.23;;;-1.40;99.90;;;;;;5034845;28;20534;-67
2022/12/15 07:14:26;;;;;;;14.87;8.07;;;-1.40;99.90;;;;;;5029635;28;20235;-67
2022/12/15 07:16:52;;;;;;;18.70;10.00;;;-1.30;99.90;;;;;;5023412;28;20296;-67
2022/12/15 07:19:18;;;;;;;25.27;11.10;;;-1.30;99.90;;;;;;5022193;28;20277;-68
2022/12/15 07:21:44;;;;;;;22.23;11.43;;;-1.30;99.90;;;;;;5009795;28;20256;-67
2022/12/15 07:24:11;;;;;;;17.13;9.70;;;-1.30;99.90;;;;;;5024713;28;20216;-67
2022/12/15 07:26:38;;;;;;;21.07;9.50;;;-1.40;99.90;;;;;;5023952;28;20452;-67
2022/12/15 07:29:03;;;;;;;12.67;8.27;;;-1.40;99.90;;;;;;5024607;28;20509;-67
2022/12/15 07:31:30;;;;;;;22.80;7.67;;;-1.40;99.90;;;;;;5029139;28;20463;-68
2022/12/15 07:33:57;;;;;;;12.17;7.23;;;-1.30;99.90;;;;;;5028306;28;20221;-68
2022/12/15 07:36:23;;;;;;;13.40;7.90;;;-1.40;99.90;;;;;;5019244;28;20481;-68
2022/12/15 07:38:49;;;;;;;16.03;6.60;;;-1.30;99.90;;;;;;5031237;28;20452;-67
2022/12/15 07:41:15;;;;;;;13.93;7.13;;;-1.30;99.90;;;;;;5021707;28;20236;-68
2022/12/15 07:43:41;;;;;;;16.83;7.60;;;-1.30;99.90;;;;;;5003650;28;20462;-67
2022/12/15 07:46:07;;;;;;;18.00;7.23;;;-1.30;99.90;;;;;;5026973;28;20212;-68
2022/12/15 07:48:33;;;;;;;20.93;9.57;;;-1.40;99.90;;;;;;5030428;28;20225;-67
2022/12/15 07:51:04;;;;;;;15.33;8.73;;;-1.40;99.90;;;;;;5002512;28;20476;-67
2022/12/15 07:53:30;;;;;;;10.50;6.33;;;-1.40;99.90;;;;;;5005553;28;20235;-67
2022/12/15 07:55:57;;;;;;;21.13;9.20;;;-1.30;99.90;;;;;;5027179;28;21006;-68
2022/12/15 07:58:27;;;;;;;24.33;9.40;;;-1.30;99.90;;;;;;5027266;28;20217;-70
2022/12/15 08:00:58;;;;;;;21.47;9.30;;;-1.30;99.90;;;;;;5028659;28;20483;-67
2022/12/15 08:03:23;;;;;;;18.47;9.00;;;-1.30;99.90;;;;;;5028031;28;20474;-68
2022/12/15 08:05:49;;;;;;;23.63;10.03;;;-1.30;99.90;;;;;;5015658;28;20853;-68
2022/12/15 08:08:16;;;;;;;18.37;10.90;;;-1.30;99.90;;;;;;5026218;28;20216;-68
2022/12/15 08:10:41;;;;;;;12.23;8.23;;;-1.30;99.90;;;;;;5025512;28;20223;-66
2022/12/15 08:13:07;;;;;;;20.07;10.43;;;-1.30;99.90;;;;;;5041747;28;20880;-68
2022/12/15 08:15:35;;;;;;;15.60;9.00;;;-1.40;99.90;;;;;;5036422;28;20231;-67
2022/12/15 08:18:01;;;;;;;17.47;10.10;;;-1.40;99.90;;;;;;5008254;28;20267;-67
2022/12/15 08:20:28;;;;;;;18.63;8.67;;;-1.40;99.90;;;;;;5007110;28;20894;-68
2022/12/15 08:22:53;;;;;;;22.60;10.93;;;-1.40;99.90;;;;;;5029493;28;20212;-67
2022/12/15 08:25:19;;;;;;;16.10;8.27;;;-1.50;99.90;;;;;;5023420;28;20977;-68
2022/12/15 08:27:44;;;;;;;19.63;8.43;;;-1.50;99.90;;;;;;5023898;28;20217;-67
2022/12/15 08:30:10;;;;;;;16.80;8.60;;;-1.50;99.90;;;;;;5026799;28;20212;-67
2022/12/15 08:32:36;;;;;;;24.57;9.87;;;-1.50;99.90;;;;;;5017100;28;20224;-67
2022/12/15 08:35:02;;;;;;;26.80;13.00;;;-1.40;99.90;;;;;;5026808;28;20216;-68
2022/12/15 08:37:27;;;;;;;26.67;12.97;;;-1.40;99.90;;;;;;5015819;28;20221;-67
2022/12/15 08:39:53;;;;;;;24.13;10.47;;;-1.40;99.90;;;;;;5011792;28;20235;-67
2022/12/15 08:42:19;;;;;;;18.80;8.97;;;-1.40;99.90;;;;;;5025239;28;20221;-67
2022/12/15 08:44:48;;;;;;;27.70;11.17;;;-1.40;99.90;;;;;;5005359;28;20232;-67
2022/12/15 08:47:13;;;;;;;24.87;11.33;;;-1.40;99.90;;;;;;5021767;28;20236;-69
2022/12/15 08:49:39;;;;;;;18.27;8.73;;;-1.50;99.90;;;;;;5030442;28;20482;-68
2022/12/15 08:52:04;;;;;;;15.50;8.53;;;-1.40;99.90;;;;;;4993723;28;20232;-67
2022/12/15 08:54:31;;;;;;;17.93;8.80;;;-1.40;99.90;;;;;;5008024;28;20233;-67
2022/12/15 08:56:57;;;;;;;27.70;9.20;;;-1.30;99.90;;;;;;5029539;28;20790;-67
2022/12/15 08:59:22;;;;;;;19.60;9.10;;;-1.40;99.90;;;;;;5032919;28;20538;-68
2022/12/15 09:01:48;;;;;;;15.57;7.67;;;-1.40;99.90;;;;;;5007475;28;20231;-68
2022/12/15 09:04:14;;;;;;;21.43;8.17;;;-1.40;99.90;;;;;;5029365;28;20221;-68
2022/12/15 09:06:40;;;;;;;15.63;8.53;;;-1.50;99.90;;;;;;5029463;28;20220;-67
2022/12/15 09:09:07;;;;;;;16.30;7.77;;;-1.40;99.90;;;;;;5027720;28;20451;-67
2022/12/15 09:11:34;;;;;;;28.60;10.60;;;-1.40;99.90;;;;;;5028017;28;20454;-67
2022/12/15 09:13:59;;;;;;;16.47;8.37;;;-1.30;99.90;;;;;;5037922;28;20468;-68
2022/12/15 09:16:26;;;;;;;24.53;9.80;;;-1.30;99.90;;;;;;5012228;28;20471;-68
2022/12/15 09:18:54;;;;;;;27.10;8.67;;;-1.40;99.90;;;;;;5024541;28;20260;-68
2022/12/15 09:21:22;;;;;;;23.93;10.80;;;-1.50;99.90;;;;;;5036152;28;20477;-68
2022/12/15 09:23:50;;;;;;;16.07;7.80;;;-1.50;99.90;;;;;;5031742;28;20466;-67
2022/12/15 09:26:17;;;;;;;16.70;8.23;;;-1.40;99.90;;;;;;5023119;28;20468;-67
2022/12/15 09:28:42;;;;;;;15.00;8.30;;;-1.40;99.90;;;;;;5019354;28;20452;-68
2022/12/15 09:31:14;;;;;;;25.77;8.07;;;-1.50;99.90;;;;;;5009009;28;20458;-68
2022/12/15 09:33:41;;;;;;;18.27;8.73;;;-1.50;99.90;;;;;;5030563;28;20216;-68
2022/12/15 09:36:09;;;;;;;21.70;9.83;;;-1.50;99.90;;;;;;5028776;28;20455;-68
2022/12/15 09:38:39;;;;;;;22.47;9.67;;;-1.50;99.90;;;;;;5020445;28;20469;-68
2022/12/15 09:41:14;;;;;;;28.40;10.57;;;-1.50;99.90;;;;;;5023855;28;20475;-67
2022/12/15 09:44:05;;;;;;;16.23;7.93;;;-1.50;99.90;;;;;;5026316;28;20458;-66
2022/12/15 09:47:08;;;;;;;19.63;7.17;;;-1.50;99.90;;;;;;5004044;28;20471;-67
2022/12/15 09:49:51;;;;;;;16.23;7.80;;;-1.40;99.90;;;;;;5010168;28;20464;-67
2022/12/15 09:52:30;;;;;;;29.33;9.67;;;-1.30;99.90;;;;;;5028013;28;20472;-68
2022/12/15 09:54:57;;;;;;;18.80;10.00;;;-1.30;99.90;;;;;;5002946;28;20519;-68
2022/12/15 09:57:34;;;;;;;19.43;9.40;;;-1.30;99.90;;;;;;5035888;28;20483;-68
2022/12/15 10:00:06;;;;;;;20.17;8.70;;;-1.30;99.90;;;;;;5026540;28;20903;-67
2022/12/15 10:03:16;;;;;;;16.90;9.07;;;-1.30;99.90;;;;;;5025203;28;20450;-67
2022/12/15 10:06:13;;;;;;;21.20;8.80;;;-1.30;99.90;;;;;;5001299;28;20448;-68
2022/12/15 10:08:51;;;;;;;16.77;7.73;;;-1.30;99.90;;;;;;5022203;28;20509;-69
2022/12/15 10:11:28;;;;;;;16.90;8.10;;;-1.30;99.90;;;;;;5021828;28;20479;-69
2022/12/15 10:14:06;;;;;;;16.50;8.70;;;-1.30;99.90;;;;;;5022229;28;20443;-68
2022/12/15 10:16:54;;;;;;;16.40;8.83;;;-1.30;99.90;;;;;;5012823;28;20467;-67
2022/12/15 10:19:32;;;;;;;21.67;9.40;;;-1.30;99.90;;;;;;5021884;28;20447;-68
2022/12/15 10:21:58;;;;;;;23.90;10.73;;;-1.50;99.90;;;;;;5021702;28;20565;-68
2022/12/15 10:24:29;;;;;;;21.77;9.13;;;-1.50;99.90;;;;;;5017390;28;20593;-67
2022/12/15 10:27:07;;;;;;;24.13;11.13;;;-1.40;99.90;;;;;;5006076;28;20463;-67
2022/12/15 10:29:43;;;;;;;23.30;9.90;;;-1.30;99.90;;;;;;5021031;28;20457;-66
2022/12/15 10:32:26;;;;;;;23.80;10.70;;;-1.20;99.90;;;;;;5021965;28;20498;-68
2022/12/15 10:34:52;;;;;;;19.60;10.33;;;-1.20;99.90;;;;;;5022395;28;20464;-68
2022/12/15 10:37:19;;;;;;;18.23;8.87;;;-1.20;99.90;;;;;;5024477;28;20466;-67
2022/12/15 10:39:47;;;;;;;22.97;10.27;;;-1.20;99.90;;;;;;5004058;28;20231;-68
2022/12/15 10:42:19;;;;;;;27.60;11.20;;;-1.20;99.90;;;;;;5021776;28;20459;-68
2022/12/15 10:44:50;;;;;;;19.20;8.90;;;-1.20;99.90;;;;;;5019337;28;20500;-68
2022/12/15 10:47:20;;;;;;;27.83;11.23;;;-1.20;99.90;;;;;;5006730;28;20444;-68
2022/12/15 10:49:45;;;;;;;24.97;9.90;;;-1.20;99.90;;;;;;5011512;28;20496;-67
2022/12/15 10:52:20;;;;;;;23.80;10.27;;;-1.10;99.90;;;;;;5013844;28;20507;-68
2022/12/15 10:54:48;;;;;;;21.90;8.40;;;-1.20;99.90;;;;;;5003866;28;20230;-68
2022/12/15 10:57:26;;;;;;;21.80;11.07;;;-1.20;99.90;;;;;;5028059;28;20491;-68
2022/12/15 10:59:54;;;;;;;20.10;10.60;;;-1.20;99.90;;;;;;5024510;28;20584;-68
2022/12/15 11:02:19;;;;;;;21.57;9.10;;;-1.20;99.90;;;;;;5016104;28;20462;-68
2022/12/15 11:04:56;;;;;;;21.20;9.53;;;-1.20;99.90;;;;;;5018280;28;20455;-68
2022/12/15 11:07:23;;;;;;;15.27;7.67;;;-1.20;99.90;;;;;;5022670;28;20235;-68
2022/12/15 11:09:49;;;;;;;20.47;8.30;;;-1.30;99.90;;;;;;5004585;28;20458;-68
2022/12/15 11:15:22;;;;;;;17.17;6.87;;;-1.30;99.90;;;;;;5022517;28;20327;-67
2022/12/15 11:18:12;;;;;;;15.30;8.17;;;-1.30;99.90;;;;;;5014447;28;20455;-67
2022/12/15 11:20:43;;;;;;;12.67;7.10;;;-1.30;99.90;;;;;;5024133;28;20474;-67
2022/12/15 11:23:31;;;;;;;20.43;8.80;;;-1.30;99.90;;;;;;5025264;28;20908;-67
2022/12/15 11:26:05;;;;;;;20.63;9.07;;;-1.20;99.90;;;;;;5012141;28;20471;-66
2022/12/15 11:28:48;;;;;;;25.10;9.17;;;-1.20;99.90;;;;;;5025565;28;20458;-66
2022/12/15 11:31:21;;;;;;;20.30;9.63;;;-1.10;99.90;;;;;;5024527;28;20474;-68
2022/12/15 11:33:49;;;;;;;17.50;7.73;;;-1.20;99.90;;;;;;5012736;28;20460;-67
2022/12/15 11:36:20;;;;;;;20.77;9.27;;;-1.30;99.90;;;;;;5020524;28;21124;-68
2022/12/15 11:38:51;;;;;;;17.07;7.57;;;-1.30;99.90;;;;;;5008465;28;20463;-67
2022/12/15 11:42:00;;;;;;;20.57;9.43;;;-1.30;99.90;;;;;;5029352;28;20550;-67
2022/12/15 11:44:59;;;;;;;13.20;6.70;;;-1.30;99.90;;;;;;5031981;28;20478;-69
2022/12/15 11:47:43;;;;;;;20.43;8.97;;;-1.20;99.90;;;;;;5040327;28;20550;-68
2022/12/15 11:50:28;;;;;;;19.40;9.13;;;-1.10;99.90;;;;;;5025955;28;20475;-68
2022/12/15 11:53:02;;;;;;;29.00;12.67;;;-1.10;99.90;;;;;;5017762;28;20597;-68
2022/12/15 11:56:07;;;;;;;27.47;11.60;;;-1.10;99.90;;;;;;5020316;28;20467;-67
2022/12/15 11:58:50;;;;;;;29.00;9.63;;;-1.10;99.90;;;;;;5016265;28;20478;-67
2022/12/15 12:01:30;;;;;;;20.40;9.43;;;-1.20;99.90;;;;;;5010454;28;20522;-67
2022/12/15 12:04:07;;;;;;;22.07;10.17;;;-1.10;99.90;;;;;;5032497;28;20550;-67
2022/12/15 12:07:12;;;;;;;27.03;11.10;;;-1.10;99.90;;;;;;5006847;28;20460;-67
2022/12/15 12:09:43;;;;;;;27.10;11.83;;;-1.20;99.90;;;;;;5015930;28;20827;-68
2022/12/15 12:12:12;;;;;;;24.57;10.70;;;-1.20;99.90;;;;;;5022414;28;20502;-67
2022/12/15 12:14:52;;;;;;;28.90;10.40;;;-1.10;99.90;;;;;;5035211;28;20481;-67
2022/12/15 12:17:44;;;;;;;16.63;7.73;;;-1.20;99.90;;;;;;5001976;28;20471;-67
2022/12/15 12:20:17;;;;;;;20.50;8.83;;;-1.20;99.90;;;;;;5003252;28;20483;-67
2022/12/15 12:23:03;;;;;;;18.50;8.90;;;-1.30;99.90;;;;;;5024597;28;20451;-68
2022/12/15 12:25:34;;;;;;;17.80;9.10;;;-1.20;99.90;;;;;;5009488;28;20456;-67
2022/12/15 12:28:05;;;;;;;25.53;9.37;;;-1.20;99.90;;;;;;5018368;28;20467;-66
2022/12/15 12:30:39;;;;;;;19.37;9.07;;;-1.20;99.90;;;;;;5020004;28;20452;-67
2022/12/15 12:33:12;;;;;;;23.53;9.57;;;-1.20;99.90;;;;;;5018981;28;20463;-67
2022/12/15 12:35:48;;;;;;;19.50;10.50;;;-1.20;99.90;;;;;;5023610;28;20431;-67
2022/12/15 12:38:19;;;;;;;27.00;11.60;;;-1.10;99.90;;;;;;5026835;28;20463;-67
2022/12/15 12:41:02;;;;;;;25.20;10.90;;;-1.20;99.90;;;;;;5031773;28;20505;-67
2022/12/15 12:43:33;;;;;;;20.50;8.80;;;-1.20;99.90;;;;;;5017342;28;20817;-68
2022/12/15 12:46:05;;;;;;;23.10;11.27;;;-1.10;99.90;;;;;;5012125;28;20464;-67
2022/12/15 12:48:34;;;;;;;26.90;11.37;;;-1.10;99.90;;;;;;5028323;28;20455;-65
2022/12/15 12:51:11;;;;;;;28.37;12.47;;;-1.10;99.90;;;;;;5011551;28;20455;-67
2022/12/15 12:53:37;;;;;;;19.17;9.57;;;-1.10;99.90;;;;;;5014600;28;20448;-67
2022/12/15 12:56:03;;;;;;;22.37;8.70;;;-1.00;99.90;;;;;;5024546;28;20469;-67
2022/12/15 12:58:40;;;;;;;24.57;12.23;;;-0.90;99.90;;;;;;5017407;28;20304;-68
2022/12/15 13:01:18;;;;;;;29.20;10.50;;;-0.90;99.90;;;;;;5012678;28;20734;-67
2022/12/15 13:03:44;;;;;;;20.77;10.17;;;-0.90;99.90;;;;;;5029172;28;20454;-68
2022/12/15 13:06:40;;;;;;;22.67;10.23;;;-0.90;99.90;;;;;;5029667;28;20470;-68
2022/12/15 13:09:37;;;;;;;21.40;8.67;;;-0.90;99.90;;;;;;5017921;28;20466;-68
2022/12/15 13:12:03;;;;;;;22.97;10.30;;;-0.90;99.90;;;;;;5022551;28;20979;-68
2022/12/15 13:14:43;;;;;;;30.97;10.47;;;-0.80;99.90;;;;;;5014332;28;20460;-68
2022/12/15 13:17:36;;;;;;;30.40;12.80;;;-0.80;99.90;;;;;;5033876;28;20824;-68
2022/12/15 13:20:02;;;;;;;31.20;14.27;;;-0.80;99.90;;;;;;5027629;28;20454;-68
2022/12/15 13:22:36;;;;;;;32.50;13.00;;;-0.80;99.90;;;;;;5029693;28;20448;-68
2022/12/15 13:25:35;;;;;;;43.43;20.07;;;-0.80;99.90;;;;;;5030518;28;20259;-68
2022/12/15 13:28:30;;;;;;;42.90;20.40;;;-0.70;99.90;;;;;;5030643;28;20508;-68
2022/12/15 13:31:15;;;;;;;52.00;23.20;;;-0.70;99.90;;;;;;5023543;28;20979;-68
2022/12/15 13:33:45;;;;;;;58.23;23.37;;;-0.70;99.90;;;;;;5030361;28;20494;-67
2022/12/15 13:36:10;;;;;;;48.30;23.57;;;-0.70;99.90;;;;;;5011781;28;20468;-68
2022/12/15 13:38:55;;;;;;;33.70;16.70;;;-0.70;99.90;;;;;;5024832;28;20970;-68
2022/12/15 13:41:22;;;;;;;32.47;16.47;;;-0.70;99.90;;;;;;5010153;28;20261;-68
2022/12/15 13:43:52;;;;;;;31.10;15.00;;;-0.70;99.90;;;;;;5029317;28;20467;-67
2022/12/15 13:46:28;;;;;;;43.13;19.77;;;-0.70;99.90;;;;;;5023566;28;20490;-67
2022/12/15 13:49:30;;;;;;;42.40;18.60;;;-0.70;99.90;;;;;;5017796;28;20457;-67
2022/12/15 13:52:11;;;;;;;39.50;16.30;;;-0.70;99.90;;;;;;5031472;28;20589;-66
2022/12/15 13:54:41;;;;;;;30.00;16.00;;;-0.70;99.90;;;;;;5020966;28;20458;-67
2022/12/15 13:57:16;;;;;;;35.33;13.80;;;-0.70;99.90;;;;;;5029985;28;20472;-67
2022/12/15 13:59:49;;;;;;;39.13;15.20;;;-0.70;99.90;;;;;;5003884;28;20454;-67
2022/12/15 14:02:35;;;;;;;30.20;12.70;;;-0.70;99.90;;;;;;5024566;28;20459;-68
2022/12/15 14:05:17;;;;;;;24.97;11.70;;;-0.70;99.90;;;;;;5028550;28;20447;-67
2022/12/15 14:07:52;;;;;;;21.50;11.57;;;-0.70;99.90;;;;;;5023918;28;20444;-67
2022/12/15 14:10:20;;;;;;;19.17;10.70;;;-0.80;99.90;;;;;;5025879;28;20537;-67
2022/12/15 14:12:48;;;;;;;27.37;11.40;;;-0.70;99.90;;;;;;5029203;28;20481;-67
2022/12/15 14:15:16;;;;;;;21.10;10.83;;;-0.70;99.90;;;;;;5003137;28;20445;-67
2022/12/15 14:17:48;;;;;;;28.50;11.00;;;-0.70;99.90;;;;;;5013055;28;20472;-67
2022/12/15 14:20:21;;;;;;;27.10;11.17;;;-0.70;99.90;;;;;;5016623;28;20554;-68
2022/12/15 14:22:49;;;;;;;26.60;11.40;;;-0.70;99.90;;;;;;5027536;28;20451;-67
2022/12/15 14:25:19;;;;;;;18.17;8.37;;;-0.70;99.90;;;;;;5027038;28;20476;-70
2022/12/15 14:27:46;;;;;;;24.43;10.20;;;-0.70;99.90;;;;;;5025199;28;20448;-67
2022/12/15 14:30:25;;;;;;;28.37;10.80;;;-0.60;99.90;;;;;;5011700;28;20538;-67
2022/12/15 14:33:10;;;;;;;20.77;9.37;;;-0.70;99.90;;;;;;5050379;28;20550;-68
2022/12/15 14:35:41;;;;;;;21.80;9.50;;;-0.60;99.90;;;;;;5040121;28;21000;-67
2022/12/15 14:38:13;;;;;;;28.20;11.07;;;-0.60;99.90;;;;;;5003671;28;20544;-67
2022/12/15 14:40:41;;;;;;;30.40;10.60;;;-0.60;99.90;;;;;;5025828;28;20575;-67
2022/12/15 14:43:16;;;;;;;26.30;10.37;;;-0.60;99.90;;;;;;5038802;28;20459;-67
2022/12/15 14:45:42;;;;;;;23.37;11.40;;;-0.60;99.90;;;;;;5010639;28;20520;-67
2022/12/15 14:48:18;;;;;;;23.40;9.13;;;-0.60;99.90;;;;;;4999700;28;20467;-67
2022/12/15 14:50:46;;;;;;;25.27;10.57;;;-0.60;99.90;;;;;;5019850;28;20242;-68
2022/12/15 14:53:19;;;;;;;22.57;10.97;;;-0.60;99.90;;;;;;5003072;28;20443;-68
2022/12/15 14:55:45;;;;;;;20.53;8.50;;;-0.60;99.90;;;;;;4998987;28;20464;-68
2022/12/15 14:58:33;;;;;;;28.07;9.30;;;-0.60;99.90;;;;;;5018722;28;20448;-67
2022/12/15 15:01:01;;;;;;;22.50;9.83;;;-0.60;99.90;;;;;;5021507;28;20235;-68
2022/12/15 15:03:34;;;;;;;19.83;9.20;;;-0.60;99.90;;;;;;5006694;28;20452;-66
2022/12/15 15:06:12;;;;;;;28.70;10.50;;;-0.60;99.90;;;;;;5024996;28;20475;-67
2022/12/15 15:08:49;;;;;;;25.47;10.10;;;-0.60;99.90;;;;;;5013649;28;20535;-67
2022/12/15 15:11:30;;;;;;;16.93;8.70;;;-0.60;99.90;;;;;;5029785;28;20469;-67
2022/12/15 15:13:59;;;;;;;17.30;8.40;;;-0.60;99.90;;;;;;5028933;28;20455;-67
2022/12/15 15:16:25;;;;;;;25.27;11.67;;;-0.60;99.90;;;;;;5016702;28;20461;-67
2022/12/15 15:18:53;;;;;;;25.47;10.93;;;-0.60;99.90;;;;;;5021963;28;20981;-67
2022/12/15 15:21:23;;;;;;;27.07;11.27;;;-0.60;99.90;;;;;;5011344;28;20220;-68
2022/12/15 15:24:08;;;;;;;24.60;11.70;;;-0.50;99.90;;;;;;5022390;28;20459;-68